• Join FlightAware (Why Join?)
  • Login
  • US Flag 
04:16AM EDT


 

Airport Tracker/Info


-or-


 

Live Flight TrackerFlight Track Log ✈ CSN6820 ✈ 05-Nov-2013 ✈ ZWTN / HTN - ZWWW / URC

Flight Track Log - Related Links

Times and Time Zones

All times are in EST time to prevent confusion due to time zone crossing. See the CSN6820 flight status page for this flight to view local times or setup timezone preferences in your user account.

Time Position Orientation Groundspeed Altitude Reporting Facility
EST Latitude Longitude Course Direction KTS MPH feet Rate Location/Type
10:40AM 37.1495 79.9726 38° Northeast  Level Estimated
10:41AM 37.2603 80.0805 38° Northeast  Level Estimated
10:42AM 37.3710 80.1888 38° Northeast  Level Estimated
10:43AM 37.4817 80.2974 38° Northeast  Level Estimated
10:44AM 37.5922 80.4063 38° Northeast  Level Estimated
10:45AM 37.7027 80.5156 38° Northeast  Level Estimated
10:46AM 37.8130 80.6251 38° Northeast  Level Estimated
10:47AM 37.9233 80.7350 38° Northeast  Level Estimated
10:48AM 38.0334 80.8453 38° Northeast  Level Estimated
10:49AM 38.1435 80.9558 38° Northeast  Level Estimated
10:50AM 38.2534 81.0667 38° Northeast  Level Estimated
10:51AM 38.3632 81.1779 38° Northeast  Level Estimated
10:52AM 38.4729 81.2895 39° Northeast  Level Estimated
10:53AM 38.5826 81.4014 39° Northeast  Level Estimated
10:54AM 38.6921 81.5137 39° Northeast  Level Estimated
10:55AM 38.8015 81.6263 39° Northeast  Level Estimated
10:56AM 38.9108 81.7392 39° Northeast  Level Estimated
10:57AM 39.0199 81.8525 39° Northeast  Level Estimated
10:58AM 39.1290 81.9661 39° Northeast  Level Estimated
10:59AM 39.2380 82.0801 39° Northeast  Level Estimated
11:00AM 39.3468 82.1944 39° Northeast  Level Estimated
11:01AM 39.4556 82.3091 39° Northeast  Level Estimated
11:02AM 39.5642 82.4242 39° Northeast  Level Estimated
11:03AM 39.6727 82.5396 39° Northeast  Level Estimated
11:04AM 39.7811 82.6554 39° Northeast  Level Estimated
11:05AM 39.8894 82.7716 39° Northeast  Level Estimated
11:06AM 39.9976 82.8881 40° Northeast  Level Estimated
11:07AM 40.1056 83.0049 40° Northeast  Level Estimated
11:08AM 40.2135 83.1222 40° Northeast  Level Estimated
11:09AM 40.3214 83.2398 40° Northeast  Level Estimated
11:10AM 40.4290 83.3578 40° Northeast  Level Estimated
11:11AM 40.5366 83.4762 40° Northeast  Level Estimated
11:12AM 40.6441 83.5950 40° Northeast  Level Estimated
11:13AM 40.7514 83.7141 40° Northeast  Level Estimated
11:14AM 40.8586 83.8336 40° Northeast  Level Estimated
11:15AM 40.9657 83.9536 40° Northeast  Level Estimated
11:16AM 41.0726 84.0739 40° Northeast  Level Estimated
11:17AM 41.1795 84.1946 40° Northeast  Level Estimated
11:18AM 41.2862 84.3157 40° Northeast  Level Estimated
11:19AM 41.3928 84.4371 41° Northeast  Level Estimated
11:20AM 41.4992 84.5590 41° Northeast  Level Estimated
11:21AM 41.6055 84.6813 41° Northeast  Level Estimated
11:22AM 41.7117 84.8040 41° Northeast  Level Estimated
11:23AM 41.8178 84.9271 41° Northeast  Level Estimated
11:24AM 41.9237 85.0506 41° Northeast  Level Estimated
11:25AM 42.0295 85.1746 41° Northeast  Level Estimated
11:26AM 42.1352 85.2989 41° Northeast  Level Estimated
11:27AM 42.2407 85.4236 41° Northeast  Level Estimated
11:28AM 42.3461 85.5488 41° Northeast  Level Estimated
11:29AM 42.4514 85.6744 41° Northeast  Level Estimated
11:30AM 42.5565 85.8004 41° Northeast  Level Estimated
11:31AM 42.6614 85.9268 42° Northeast  Level Estimated
11:32AM 42.7663 86.0537 42° Northeast  Level Estimated
11:33AM 42.8710 86.1810 42° Northeast  Level Estimated
11:34AM 42.9756 86.3087 42° Northeast  Level Estimated
11:35AM 43.0800 86.4368 42° Northeast  Level Estimated
11:36AM 43.1842 86.5654 42° Northeast  Level Estimated
11:37AM 43.2884 86.6945 42° Northeast  Level Estimated
11:38AM 43.3923 86.8239 42° Northeast  Level Estimated
11:39AM 43.4962 86.9538 42° Northeast  Level Estimated
11:40AM 43.5999 87.0842 42° Northeast  Level Estimated
11:41AM 43.7034 87.2150 42° Northeast  Level Estimated
11:42AM 43.8068 87.3463 42° Northeast  Level Estimated
11:43AM 43.9071 87.4742 43° Northeast  Level Estimated
11:44AM 43.9071 87.4742 144° Southeast  Level Estimated
11:45AM 43.9071 87.4742 144° Southeast  Level Estimated
11:46AM 43.9071 87.4742 144° Southeast  Level Estimated
11:47AM 43.9071 87.4742 144° Southeast  Level Estimated
11:48AM 43.9071 87.4742 144° Southeast  Level Estimated
11:49AM 43.9071 87.4742 144° Southeast  Level Estimated
11:50AM 43.9071 87.4742 144° Southeast  Level Estimated
11:51AM 43.9071 87.4742 144° Southeast  Level Estimated
11:52AM 43.9071 87.4742 144° Southeast  Level Estimated
11:53AM 43.9071 87.4742 144° Southeast  Level Estimated
11:54AM 43.9071 87.4742 144° Southeast  Level Estimated
11:55AM 43.9071 87.4742 144° Southeast  Level Estimated
11:56AM 43.9071 87.4742 144° Southeast  Level Estimated
11:57AM 43.9071 87.4742 144° Southeast  Level Estimated
11:58AM 43.9071 87.4742 144° Southeast  Level Estimated
11:59AM 43.9071 87.4742 144° Southeast  Level Estimated
12:00PM 43.9071 87.4742 144° Southeast  Level Estimated